sensor_id;sensor_type;location;lat;lon;timestamp;pressure;altitude;pressure_sealevel;temperature;humidity
10466;BME280;5280;42.600;23.556;2022-08-19T00:00:36;93198.28;;;21.66;66.57
10466;BME280;5280;42.600;23.556;2022-08-19T00:03:03;93209.03;;;21.66;67.59
10466;BME280;5280;42.600;23.556;2022-08-19T00:05:31;93194.22;;;21.55;68.41
10466;BME280;5280;42.600;23.556;2022-08-19T00:07:58;93199.28;;;21.65;68.12
10466;BME280;5280;42.600;23.556;2022-08-19T00:10:25;93185.41;;;21.61;68.18
10466;BME280;5280;42.600;23.556;2022-08-19T00:12:51;93205.53;;;21.72;68.66
10466;BME280;5280;42.600;23.556;2022-08-19T00:15:21;93203.25;;;21.69;68.41
10466;BME280;5280;42.600;23.556;2022-08-19T00:17:48;93201.84;;;21.73;68.76
10466;BME280;5280;42.600;23.556;2022-08-19T00:20:17;93203.94;;;21.77;68.40
10466;BME280;5280;42.600;23.556;2022-08-19T00:22:45;93164.72;;;21.40;68.00
10466;BME280;5280;42.600;23.556;2022-08-19T00:25:15;93207.03;;;21.74;68.32
10466;BME280;5280;42.600;23.556;2022-08-19T00:27:44;93194.56;;;21.67;68.69
10466;BME280;5280;42.600;23.556;2022-08-19T00:30:15;93194.56;;;21.67;68.97
10466;BME280;5280;42.600;23.556;2022-08-19T00:32:43;93208.13;;;21.80;68.82
10466;BME280;5280;42.600;23.556;2022-08-19T00:35:10;93202.50;;;21.75;68.44
10466;BME280;5280;42.600;23.556;2022-08-19T00:37:38;93217.28;;;21.85;66.24
10466;BME280;5280;42.600;23.556;2022-08-19T00:40:11;93218.13;;;21.86;66.54
10466;BME280;5280;42.600;23.556;2022-08-19T00:42:38;93219.75;;;21.87;66.04
10466;BME280;5280;42.600;23.556;2022-08-19T00:45:11;93217.28;;;21.85;65.09
10466;BME280;5280;42.600;23.556;2022-08-19T00:47:41;93181.88;;;21.61;66.42
10466;BME280;5280;42.600;23.556;2022-08-19T00:50:11;93221.19;;;21.83;66.63
10466;BME280;5280;42.600;23.556;2022-08-19T00:52:42;93204.75;;;21.71;66.01
10466;BME280;5280;42.600;23.556;2022-08-19T00:55:12;93216.56;;;21.77;64.87
10466;BME280;5280;42.600;23.556;2022-08-19T00:57:42;93216.97;;;21.74;64.57
10466;BME280;5280;42.600;23.556;2022-08-19T01:00:13;93230.34;;;21.67;64.22
10466;BME280;5280;42.600;23.556;2022-08-19T01:02:42;93223.91;;;21.62;65.51
10466;BME280;5280;42.600;23.556;2022-08-19T01:05:14;93224.66;;;21.56;65.97
10466;BME280;5280;42.600;23.556;2022-08-19T01:07:43;93216.59;;;21.56;64.79
10466;BME280;5280;42.600;23.556;2022-08-19T01:10:12;93216.50;;;21.49;65.56
10466;BME280;5280;42.600;23.556;2022-08-19T01:12:40;93201.06;;;21.36;65.49
10466;BME280;5280;42.600;23.556;2022-08-19T01:15:10;93209.75;;;21.38;65.78
10466;BME280;5280;42.600;23.556;2022-08-19T01:17:38;93209.16;;;21.36;66.63
10466;BME280;5280;42.600;23.556;2022-08-19T01:20:12;93171.47;;;21.00;66.93
10466;BME280;5280;42.600;23.556;2022-08-19T01:22:45;93160.03;;;20.92;67.38
10466;BME280;5280;42.600;23.556;2022-08-19T01:25:14;93173.59;;;21.05;68.03
10466;BME280;5280;42.600;23.556;2022-08-19T01:27:42;93208.34;;;21.21;67.31
10466;BME280;5280;42.600;23.556;2022-08-19T01:30:14;93208.09;;;21.16;67.31
10466;BME280;5280;42.600;23.556;2022-08-19T01:32:41;93201.56;;;21.11;67.76
10466;BME280;5280;42.600;23.556;2022-08-19T01:35:11;93147.16;;;20.73;68.03
10466;BME280;5280;42.600;23.556;2022-08-19T01:37:49;93196.50;;;21.01;68.87
10466;BME280;5280;42.600;23.556;2022-08-19T01:40:18;93175.69;;;20.74;69.62
10466;BME280;5280;42.600;23.556;2022-08-19T01:42:46;93193.72;;;20.94;68.72
10466;BME280;5280;42.600;23.556;2022-08-19T01:45:13;93162.00;;;20.69;69.33
10466;BME280;5280;42.600;23.556;2022-08-19T01:47:39;93188.66;;;20.85;69.57
10466;BME280;5280;42.600;23.556;2022-08-19T01:50:09;93192.91;;;20.79;69.88
10466;BME280;5280;42.600;23.556;2022-08-19T01:52:37;93194.59;;;20.80;69.88
10466;BME280;5280;42.600;23.556;2022-08-19T01:55:09;93204.50;;;20.80;68.27
10466;BME280;5280;42.600;23.556;2022-08-19T01:57:37;93199.97;;;20.80;66.53
10466;BME280;5280;42.600;23.556;2022-08-19T02:00:09;93204.50;;;20.80;68.36
10466;BME280;5280;42.600;23.556;2022-08-19T02:02:36;93189.41;;;20.64;68.99
10466;BME280;5280;42.600;23.556;2022-08-19T02:05:10;93132.75;;;20.44;69.50
10466;BME280;5280;42.600;23.556;2022-08-19T02:07:37;93196.72;;;20.85;70.05
10466;BME280;5280;42.600;23.556;2022-08-19T02:10:09;93194.41;;;20.82;70.25
10466;BME280;5280;42.600;23.556;2022-08-19T02:12:36;93198.09;;;20.81;71.05
10466;BME280;5280;42.600;23.556;2022-08-19T02:15:04;93203.28;;;20.82;69.67
10466;BME280;5280;42.600;23.556;2022-08-19T02:17:31;93200.53;;;20.76;70.11
10466;BME280;5280;42.600;23.556;2022-08-19T02:19:58;93198.19;;;20.73;70.53
10466;BME280;5280;42.600;23.556;2022-08-19T02:22:25;93206.06;;;20.74;70.71
10466;BME280;5280;42.600;23.556;2022-08-19T02:24:53;93203.38;;;20.74;69.05
10466;BME280;5280;42.600;23.556;2022-08-19T02:27:21;93204.22;;;20.75;69.78
10466;BME280;5280;42.600;23.556;2022-08-19T02:29:50;93209.31;;;20.70;70.21
10466;BME280;5280;42.600;23.556;2022-08-19T02:32:17;93222.56;;;20.71;69.70
10466;BME280;5280;42.600;23.556;2022-08-19T02:34:45;93205.25;;;20.59;70.19
10466;BME280;5280;42.600;23.556;2022-08-19T02:37:12;93217.28;;;20.63;70.85
10466;BME280;5280;42.600;23.556;2022-08-19T02:39:53;93188.59;;;20.49;70.21
10466;BME280;5280;42.600;23.556;2022-08-19T02:42:21;93221.81;;;20.62;71.11
10466;BME280;5280;42.600;23.556;2022-08-19T02:44:48;93112.28;;;19.99;70.08
10466;BME280;5280;42.600;23.556;2022-08-19T02:47:15;93221.53;;;20.57;70.74
10466;BME280;5280;42.600;23.556;2022-08-19T02:49:42;93205.53;;;20.49;70.72
10466;BME280;5280;42.600;23.556;2022-08-19T02:52:09;93222.94;;;20.53;70.86
10466;BME280;5280;42.600;23.556;2022-08-19T02:54:36;93222.56;;;20.56;69.95
10466;BME280;5280;42.600;23.556;2022-08-19T02:57:04;93229.97;;;20.54;70.65
10466;BME280;5280;42.600;23.556;2022-08-19T02:59:32;93208.66;;;20.38;70.13
10466;BME280;5280;42.600;23.556;2022-08-19T03:01:59;93174.47;;;20.17;69.36
10466;BME280;5280;42.600;23.556;2022-08-19T03:04:26;93209.97;;;20.42;70.36
10466;BME280;5280;42.600;23.556;2022-08-19T03:06:53;93225.72;;;20.45;71.04
10466;BME280;5280;42.600;23.556;2022-08-19T03:09:20;93218.00;;;20.42;70.44
10466;BME280;5280;42.600;23.556;2022-08-19T03:11:47;93208.59;;;20.32;70.77
10466;BME280;5280;42.600;23.556;2022-08-19T03:14:15;93205.91;;;20.32;71.22
10466;BME280;5280;42.600;23.556;2022-08-19T03:16:46;93213.59;;;20.35;71.28
10466;BME280;5280;42.600;23.556;2022-08-19T03:19:16;93217.28;;;20.34;71.68
10466;BME280;5280;42.600;23.556;2022-08-19T03:21:43;93220.97;;;20.33;70.66
10466;BME280;5280;42.600;23.556;2022-08-19T03:24:11;93219.97;;;20.34;71.94
10466;BME280;5280;42.600;23.556;2022-08-19T03:26:39;93181.44;;;20.12;71.58
10466;BME280;5280;42.600;23.556;2022-08-19T03:29:07;93147.53;;;19.82;72.63
10466;BME280;5280;42.600;23.556;2022-08-19T03:31:37;93210.38;;;20.16;73.44
10466;BME280;5280;42.600;23.556;2022-08-19T03:34:05;93210.09;;;20.11;72.98
10466;BME280;5280;42.600;23.556;2022-08-19T03:36:32;93225.09;;;20.06;73.16
10466;BME280;5280;42.600;23.556;2022-08-19T03:39:00;93219.78;;;19.98;73.40
10466;BME280;5280;42.600;23.556;2022-08-19T03:41:30;93222.38;;;19.91;73.89
10466;BME280;5280;42.600;23.556;2022-08-19T03:43:57;93225.06;;;19.91;73.54
10466;BME280;5280;42.600;23.556;2022-08-19T03:46:27;93219.41;;;19.86;74.00
10466;BME280;5280;42.600;23.556;2022-08-19T03:48:56;93194.97;;;19.58;74.19
10466;BME280;5280;42.600;23.556;2022-08-19T03:51:27;93224.34;;;19.74;75.07
10466;BME280;5280;42.600;23.556;2022-08-19T03:53:55;93219.16;;;19.73;74.88
10466;BME280;5280;42.600;23.556;2022-08-19T03:56:22;93227.41;;;19.71;75.49
10466;BME280;5280;42.600;23.556;2022-08-19T03:58:50;93241.19;;;19.83;75.56
10466;BME280;5280;42.600;23.556;2022-08-19T04:01:20;93231.50;;;19.82;75.54
10466;BME280;5280;42.600;23.556;2022-08-19T04:03:48;93240.66;;;19.88;76.02
10466;BME280;5280;42.600;23.556;2022-08-19T04:06:17;93238.72;;;19.82;76.81
10466;BME280;5280;42.600;23.556;2022-08-19T04:08:49;93245.09;;;19.81;76.07
10466;BME280;5280;42.600;23.556;2022-08-19T04:11:19;93217.38;;;19.65;76.00
10466;BME280;5280;42.600;23.556;2022-08-19T04:13:47;93245.84;;;19.89;75.90
10466;BME280;5280;42.600;23.556;2022-08-19T04:16:14;93256.03;;;19.94;76.57
10466;BME280;5280;42.600;23.556;2022-08-19T04:18:41;93253.00;;;19.97;76.72
10466;BME280;5280;42.600;23.556;2022-08-19T04:21:15;93261.34;;;20.02;76.70
10466;BME280;5280;42.600;23.556;2022-08-19T04:23:42;93248.75;;;20.02;77.12
10466;BME280;5280;42.600;23.556;2022-08-19T04:26:13;93260.25;;;20.11;77.73
10466;BME280;5280;42.600;23.556;2022-08-19T04:28:41;93259.25;;;20.12;78.30
10466;BME280;5280;42.600;23.556;2022-08-19T04:31:12;93223.66;;;19.95;77.83
10466;BME280;5280;42.600;23.556;2022-08-19T04:33:39;93259.28;;;20.27;78.80
10466;BME280;5280;42.600;23.556;2022-08-19T04:36:06;93267.88;;;20.22;80.49
10466;BME280;5280;42.600;23.556;2022-08-19T04:38:35;93223.53;;;20.11;79.75
10466;BME280;5280;42.600;23.556;2022-08-19T04:41:03;93258.84;;;20.52;79.05
10466;BME280;5280;42.600;23.556;2022-08-19T04:43:49;93254.97;;;20.70;79.57
10466;BME280;5280;42.600;23.556;2022-08-19T04:46:16;93251.44;;;20.84;79.06
10466;BME280;5280;42.600;23.556;2022-08-19T04:48:45;93245.63;;;20.95;78.66
10466;BME280;5280;42.600;23.556;2022-08-19T04:51:12;93253.13;;;21.14;78.87
10466;BME280;5280;42.600;23.556;2022-08-19T04:53:41;93204.91;;;20.98;79.02
10466;BME280;5280;42.600;23.556;2022-08-19T04:56:10;93179.72;;;20.99;79.20
10466;BME280;5280;42.600;23.556;2022-08-19T04:58:38;93246.47;;;21.46;78.75
10466;BME280;5280;42.600;23.556;2022-08-19T05:01:11;93188.03;;;21.19;78.69
10466;BME280;5280;42.600;23.556;2022-08-19T05:03:38;93244.38;;;21.63;78.94
10466;BME280;5280;42.600;23.556;2022-08-19T05:06:05;93255.91;;;21.78;78.74
10466;BME280;5280;42.600;23.556;2022-08-19T05:08:34;93248.09;;;21.83;78.65
10466;BME280;5280;42.600;23.556;2022-08-19T05:11:08;93211.97;;;21.71;77.75
10466;BME280;5280;42.600;23.556;2022-08-19T05:13:36;93261.44;;;22.12;77.11
10466;BME280;5280;42.600;23.556;2022-08-19T05:16:04;93256.38;;;22.24;76.16
10466;BME280;5280;42.600;23.556;2022-08-19T05:18:32;93265.78;;;22.35;76.71
10466;BME280;5280;42.600;23.556;2022-08-19T05:21:19;93261.25;;;22.42;76.59
10466;BME280;5280;42.600;23.556;2022-08-19T05:24:04;93258.69;;;22.55;75.39
10466;BME280;5280;42.600;23.556;2022-08-19T05:26:33;93254.16;;;22.62;75.31
10466;BME280;5280;42.600;23.556;2022-08-19T05:29:00;93261.13;;;22.78;75.76
10466;BME280;5280;42.600;23.556;2022-08-19T05:31:26;93260.59;;;22.89;75.10
10466;BME280;5280;42.600;23.556;2022-08-19T05:33:55;93260.22;;;22.98;74.42
10466;BME280;5280;42.600;23.556;2022-08-19T05:36:23;93268.78;;;23.08;74.25
10466;BME280;5280;42.600;23.556;2022-08-19T05:38:50;93257.25;;;23.21;73.57
10466;BME280;5280;42.600;23.556;2022-08-19T05:41:19;93259.56;;;23.37;73.27
10466;BME280;5280;42.600;23.556;2022-08-19T05:43:46;93262.97;;;23.46;72.04
10466;BME280;5280;42.600;23.556;2022-08-19T05:46:17;93268.00;;;23.62;72.70
10466;BME280;5280;42.600;23.556;2022-08-19T05:48:45;93267.78;;;23.57;69.58
10466;BME280;5280;42.600;23.556;2022-08-19T05:51:13;93273.81;;;23.59;69.41
10466;BME280;5280;42.600;23.556;2022-08-19T05:53:41;93281.25;;;23.57;70.32
10466;BME280;5280;42.600;23.556;2022-08-19T05:56:12;93272.78;;;23.67;70.27
10466;BME280;5280;42.600;23.556;2022-08-19T05:58:40;93279.28;;;23.85;69.01
10466;BME280;5280;42.600;23.556;2022-08-19T06:01:10;93277.66;;;23.91;69.59
10466;BME280;5280;42.600;23.556;2022-08-19T06:03:37;93276.84;;;24.03;69.39
10466;BME280;5280;42.600;23.556;2022-08-19T06:06:05;93280.00;;;24.20;69.03
10466;BME280;5280;42.600;23.556;2022-08-19T06:08:34;93273.38;;;24.29;67.89
10466;BME280;5280;42.600;23.556;2022-08-19T06:11:13;93283.97;;;24.44;67.99
10466;BME280;5280;42.600;23.556;2022-08-19T06:13:40;93273.97;;;24.51;67.49
10466;BME280;5280;42.600;23.556;2022-08-19T06:16:07;93272.13;;;24.58;66.05
10466;BME280;5280;42.600;23.556;2022-08-19T06:18:34;93281.06;;;24.59;65.85
10466;BME280;5280;42.600;23.556;2022-08-19T06:21:01;93246.13;;;24.37;66.00
10466;BME280;5280;42.600;23.556;2022-08-19T06:23:29;93279.81;;;24.74;65.18
10466;BME280;5280;42.600;23.556;2022-08-19T06:25:58;93280.22;;;24.84;64.43
10466;BME280;5280;42.600;23.556;2022-08-19T06:28:24;93254.00;;;24.72;65.49
10466;BME280;5280;42.600;23.556;2022-08-19T06:30:51;93287.50;;;25.04;64.90
10466;BME280;5280;42.600;23.556;2022-08-19T06:33:18;93275.22;;;25.08;64.30
10466;BME280;5280;42.600;23.556;2022-08-19T06:35:45;93279.78;;;25.20;63.28
10466;BME280;5280;42.600;23.556;2022-08-19T06:38:11;93282.81;;;25.30;62.83
10466;BME280;5280;42.600;23.556;2022-08-19T06:40:38;93259.56;;;25.23;63.16
10466;BME280;5280;42.600;23.556;2022-08-19T06:43:07;93273.28;;;25.35;62.99
10466;BME280;5280;42.600;23.556;2022-08-19T06:45:36;93284.66;;;25.50;61.13
10466;BME280;5280;42.600;23.556;2022-08-19T06:48:03;93241.00;;;25.33;61.23
10466;BME280;5280;42.600;23.556;2022-08-19T06:50:30;93285.44;;;25.70;61.40
10466;BME280;5280;42.600;23.556;2022-08-19T06:52:57;93286.22;;;25.84;60.29
10466;BME280;5280;42.600;23.556;2022-08-19T06:55:27;93283.13;;;25.80;59.33
10466;BME280;5280;42.600;23.556;2022-08-19T06:57:54;93283.06;;;25.87;59.35
10466;BME280;5280;42.600;23.556;2022-08-19T07:00:22;93284.47;;;25.96;60.02
10466;BME280;5280;42.600;23.556;2022-08-19T07:02:49;93273.59;;;26.02;58.64
10466;BME280;5280;42.600;23.556;2022-08-19T07:05:16;93289.72;;;26.29;57.45
10466;BME280;5280;42.600;23.556;2022-08-19T07:07:43;93272.63;;;26.28;58.13
10466;BME280;5280;42.600;23.556;2022-08-19T07:10:13;93223.25;;;25.95;56.30
10466;BME280;5280;42.600;23.556;2022-08-19T07:12:40;93294.72;;;26.56;58.52
10466;BME280;5280;42.600;23.556;2022-08-19T07:15:07;93279.28;;;26.57;55.74
10466;BME280;5280;42.600;23.556;2022-08-19T07:17:37;93263.88;;;26.58;54.48
10466;BME280;5280;42.600;23.556;2022-08-19T07:20:22;93295.09;;;26.91;54.75
10466;BME280;5280;42.600;23.556;2022-08-19T07:22:50;93277.09;;;26.97;54.46
10466;BME280;5280;42.600;23.556;2022-08-19T07:25:16;93295.38;;;27.08;52.77
10466;BME280;5280;42.600;23.556;2022-08-19T07:27:43;93277.44;;;27.07;53.35
10466;BME280;5280;42.600;23.556;2022-08-19T07:30:10;93297.06;;;27.27;53.46
10466;BME280;5280;42.600;23.556;2022-08-19T07:32:38;93295.69;;;27.36;52.68
10466;BME280;5280;42.600;23.556;2022-08-19T07:35:06;93271.72;;;27.33;53.45
10466;BME280;5280;42.600;23.556;2022-08-19T07:37:36;93260.94;;;27.45;51.99
10466;BME280;5280;42.600;23.556;2022-08-19T07:40:06;93298.53;;;27.66;51.89
10466;BME280;5280;42.600;23.556;2022-08-19T07:42:33;93299.19;;;27.80;52.12
10466;BME280;5280;42.600;23.556;2022-08-19T07:44:59;93281.84;;;27.81;52.15
10466;BME280;5280;42.600;23.556;2022-08-19T07:47:26;93293.50;;;28.00;50.25
10466;BME280;5280;42.600;23.556;2022-08-19T07:49:54;93252.34;;;27.85;50.99
10466;BME280;5280;42.600;23.556;2022-08-19T07:52:21;93287.16;;;28.24;51.34
10466;BME280;5280;42.600;23.556;2022-08-19T07:54:49;93294.28;;;28.37;51.06
10466;BME280;5280;42.600;23.556;2022-08-19T07:57:16;93287.94;;;28.43;51.54
10466;BME280;5280;42.600;23.556;2022-08-19T07:59:44;93287.38;;;28.52;48.79
10466;BME280;5280;42.600;23.556;2022-08-19T08:02:11;93287.63;;;28.62;49.54
10466;BME280;5280;42.600;23.556;2022-08-19T08:04:38;93292.44;;;28.79;48.82
10466;BME280;5280;42.600;23.556;2022-08-19T08:07:22;93284.25;;;28.90;47.15
10466;BME280;5280;42.600;23.556;2022-08-19T08:10:08;93286.16;;;29.01;47.43
10466;BME280;5280;42.600;23.556;2022-08-19T08:12:37;93282.50;;;29.07;49.84
10466;BME280;5280;42.600;23.556;2022-08-19T08:15:09;93292.09;;;29.22;47.10
10466;BME280;5280;42.600;23.556;2022-08-19T08:17:37;93290.09;;;29.29;45.28
10466;BME280;5280;42.600;23.556;2022-08-19T08:20:05;93290.09;;;29.40;46.08
10466;BME280;5280;42.600;23.556;2022-08-19T08:22:33;93283.94;;;29.57;44.68
10466;BME280;5280;42.600;23.556;2022-08-19T08:25:22;93265.34;;;29.54;44.73
10466;BME280;5280;42.600;23.556;2022-08-19T08:27:50;93274.09;;;29.67;43.07
10466;BME280;5280;42.600;23.556;2022-08-19T08:30:21;93267.19;;;29.76;43.84
10466;BME280;5280;42.600;23.556;2022-08-19T08:32:49;93278.44;;;29.91;44.42
10466;BME280;5280;42.600;23.556;2022-08-19T08:35:18;93266.47;;;29.92;41.29
10466;BME280;5280;42.600;23.556;2022-08-19T08:37:46;93275.53;;;30.10;42.72
10466;BME280;5280;42.600;23.556;2022-08-19T08:40:22;93280.13;;;30.21;40.85
10466;BME280;5280;42.600;23.556;2022-08-19T08:42:55;93272.63;;;30.28;42.17
10466;BME280;5280;42.600;23.556;2022-08-19T08:45:26;93273.38;;;30.40;41.02
10466;BME280;5280;42.600;23.556;2022-08-19T08:47:57;93271.81;;;30.44;41.62
10466;BME280;5280;42.600;23.556;2022-08-19T08:50:32;93272.22;;;30.48;41.34
10466;BME280;5280;42.600;23.556;2022-08-19T08:53:02;93272.56;;;30.68;40.80
10466;BME280;5280;42.600;23.556;2022-08-19T08:55:32;93269.50;;;30.81;39.86
10466;BME280;5280;42.600;23.556;2022-08-19T08:58:03;93272.25;;;30.98;38.41
10466;BME280;5280;42.600;23.556;2022-08-19T09:00:32;93248.59;;;30.87;38.72
10466;BME280;5280;42.600;23.556;2022-08-19T09:03:01;93266.81;;;31.14;40.07
10466;BME280;5280;42.600;23.556;2022-08-19T09:05:36;93264.97;;;31.20;37.41
10466;BME280;5280;42.600;23.556;2022-08-19T09:08:10;93258.84;;;31.30;38.89
10466;BME280;5280;42.600;23.556;2022-08-19T09:10:49;93263.22;;;31.31;37.31
10466;BME280;5280;42.600;23.556;2022-08-19T09:13:29;93258.81;;;31.46;37.91
10466;BME280;5280;42.600;23.556;2022-08-19T09:16:03;93255.19;;;31.57;38.10
10466;BME280;5280;42.600;23.556;2022-08-19T09:18:39;93259.44;;;31.53;36.83
10466;BME280;5280;42.600;23.556;2022-08-19T09:21:06;93261.88;;;31.67;36.42
10466;BME280;5280;42.600;23.556;2022-08-19T09:23:34;93264.16;;;31.75;37.08
10466;BME280;5280;42.600;23.556;2022-08-19T09:26:07;93246.03;;;31.69;36.42
10466;BME280;5280;42.600;23.556;2022-08-19T09:28:34;93242.09;;;31.59;35.67
10466;BME280;5280;42.600;23.556;2022-08-19T09:31:02;93233.59;;;31.78;36.82
10466;BME280;5280;42.600;23.556;2022-08-19T09:33:29;93252.59;;;31.89;36.90
10466;BME280;5280;42.600;23.556;2022-08-19T09:36:03;93253.00;;;31.98;35.96
10466;BME280;5280;42.600;23.556;2022-08-19T09:38:30;93201.34;;;31.80;35.49
10466;BME280;5280;42.600;23.556;2022-08-19T09:41:03;93243.34;;;32.12;33.64
10466;BME280;5280;42.600;23.556;2022-08-19T09:43:31;93237.97;;;32.22;34.48
10466;BME280;5280;42.600;23.556;2022-08-19T09:45:58;93241.06;;;32.31;35.90
10466;BME280;5280;42.600;23.556;2022-08-19T09:48:25;93239.66;;;32.28;34.71
10466;BME280;5280;42.600;23.556;2022-08-19T09:50:52;93203.59;;;32.10;34.86
10466;BME280;5280;42.600;23.556;2022-08-19T09:53:19;93237.34;;;32.15;31.31
10466;BME280;5280;42.600;23.556;2022-08-19T09:55:48;93228.38;;;32.20;33.93
10466;BME280;5280;42.600;23.556;2022-08-19T09:58:16;93224.34;;;32.27;33.75
10466;BME280;5280;42.600;23.556;2022-08-19T10:00:43;93221.16;;;32.35;34.20
10466;BME280;5280;42.600;23.556;2022-08-19T10:03:11;93217.38;;;32.41;33.75
10466;BME280;5280;42.600;23.556;2022-08-19T10:05:39;93222.47;;;32.60;36.31
10466;BME280;5280;42.600;23.556;2022-08-19T10:08:17;93219.44;;;32.56;35.96
10466;BME280;5280;42.600;23.556;2022-08-19T10:10:47;93216.41;;;32.53;33.73
10466;BME280;5280;42.600;23.556;2022-08-19T10:13:19;93203.84;;;32.57;34.99
10466;BME280;5280;42.600;23.556;2022-08-19T10:15:51;93209.09;;;32.63;36.47
10466;BME280;5280;42.600;23.556;2022-08-19T10:18:20;93209.50;;;32.72;35.62
10466;BME280;5280;42.600;23.556;2022-08-19T10:20:48;93213.91;;;32.78;35.32
10466;BME280;5280;42.600;23.556;2022-08-19T10:23:16;93190.31;;;32.72;32.45
10466;BME280;5280;42.600;23.556;2022-08-19T10:25:43;93163.22;;;32.43;32.18
10466;BME280;5280;42.600;23.556;2022-08-19T10:28:10;93208.28;;;32.63;31.40
10466;BME280;5280;42.600;23.556;2022-08-19T10:30:39;93200.16;;;32.73;32.96
10466;BME280;5280;42.600;23.556;2022-08-19T10:33:06;93199.44;;;32.56;31.82
10466;BME280;5280;42.600;23.556;2022-08-19T10:35:33;93203.16;;;32.66;32.70
10466;BME280;5280;42.600;23.556;2022-08-19T10:38:02;93188.88;;;32.64;31.61
10466;BME280;5280;42.600;23.556;2022-08-19T10:40:28;93194.94;;;32.66;33.30
10466;BME280;5280;42.600;23.556;2022-08-19T10:42:55;93198.91;;;32.59;34.38
10466;BME280;5280;42.600;23.556;2022-08-19T10:45:23;93191.50;;;32.54;34.18
10466;BME280;5280;42.600;23.556;2022-08-19T10:47:52;93202.97;;;32.51;35.99
10466;BME280;5280;42.600;23.556;2022-08-19T10:50:19;93191.00;;;32.30;32.17
10466;BME280;5280;42.600;23.556;2022-08-19T10:53:04;93203.66;;;32.36;31.40
10466;BME280;5280;42.600;23.556;2022-08-19T10:55:34;93169.00;;;32.20;30.96
10466;BME280;5280;42.600;23.556;2022-08-19T10:58:20;93203.19;;;32.44;33.93
10466;BME280;5280;42.600;23.556;2022-08-19T11:00:57;93194.47;;;32.47;34.20
10466;BME280;5280;42.600;23.556;2022-08-19T11:03:26;93193.09;;;32.50;32.04
10466;BME280;5280;42.600;23.556;2022-08-19T11:06:00;93184.91;;;32.50;33.94
10466;BME280;5280;42.600;23.556;2022-08-19T11:08:27;93193.63;;;32.47;31.63
10466;BME280;5280;42.600;23.556;2022-08-19T11:10:59;93192.66;;;32.31;31.49
10466;BME280;5280;42.600;23.556;2022-08-19T11:13:26;93156.06;;;32.11;32.76
10466;BME280;5280;42.600;23.556;2022-08-19T11:15:59;93185.97;;;32.17;32.43
10466;BME280;5280;42.600;23.556;2022-08-19T11:18:28;93182.13;;;32.18;33.96
10466;BME280;5280;42.600;23.556;2022-08-19T11:21:05;93156.69;;;31.96;32.75
10466;BME280;5280;42.600;23.556;2022-08-19T11:23:35;93185.91;;;32.12;34.94
10466;BME280;5280;42.600;23.556;2022-08-19T11:26:01;93166.28;;;31.98;35.49
10466;BME280;5280;42.600;23.556;2022-08-19T11:28:29;93189.28;;;32.24;33.72
10466;BME280;5280;42.600;23.556;2022-08-19T11:30:56;93187.91;;;32.22;34.30
10466;BME280;5280;42.600;23.556;2022-08-19T11:33:22;93175.56;;;32.19;34.91
10466;BME280;5280;42.600;23.556;2022-08-19T11:35:53;93181.63;;;32.21;33.57
10466;BME280;5280;42.600;23.556;2022-08-19T11:38:20;93172.34;;;32.22;34.62
10466;BME280;5280;42.600;23.556;2022-08-19T11:40:54;93166.22;;;32.15;33.44
10466;BME280;5280;42.600;23.556;2022-08-19T11:43:21;93161.28;;;32.12;34.80
10466;BME280;5280;42.600;23.556;2022-08-19T11:45:48;93160.38;;;32.07;35.85
10466;BME280;5280;42.600;23.556;2022-08-19T11:48:15;93171.41;;;32.12;35.19
10466;BME280;5280;42.600;23.556;2022-08-19T11:50:42;93131.22;;;31.90;33.60
10466;BME280;5280;42.600;23.556;2022-08-19T11:53:11;93131.78;;;31.92;34.03
10466;BME280;5280;42.600;23.556;2022-08-19T11:55:38;93159.44;;;32.18;32.28
10466;BME280;5280;42.600;23.556;2022-08-19T11:58:05;93112.84;;;31.86;32.70
10466;BME280;5280;42.600;23.556;2022-08-19T12:00:33;93140.69;;;32.10;32.99
10466;BME280;5280;42.600;23.556;2022-08-19T12:03:01;93140.53;;;32.16;33.56
10466;BME280;5280;42.600;23.556;2022-08-19T12:05:27;93141.31;;;32.12;34.73
10466;BME280;5280;42.600;23.556;2022-08-19T12:07:54;93142.19;;;32.17;34.57
10466;BME280;5280;42.600;23.556;2022-08-19T12:10:23;93130.78;;;32.03;35.34
10466;BME280;5280;42.600;23.556;2022-08-19T12:12:50;93126.81;;;32.11;33.83
10466;BME280;5280;42.600;23.556;2022-08-19T12:15:17;93134.25;;;32.16;33.51
10466;BME280;5280;42.600;23.556;2022-08-19T12:17:44;93113.19;;;31.94;32.58
10466;BME280;5280;42.600;23.556;2022-08-19T12:20:12;93127.94;;;32.15;34.09
10466;BME280;5280;42.600;23.556;2022-08-19T12:22:41;93105.75;;;32.12;32.85
10466;BME280;5280;42.600;23.556;2022-08-19T12:25:09;93101.94;;;32.13;34.42
10466;BME280;5280;42.600;23.556;2022-08-19T12:27:40;93108.06;;;32.25;37.42
10466;BME280;5280;42.600;23.556;2022-08-19T12:30:10;93120.44;;;32.32;34.61
10466;BME280;5280;42.600;23.556;2022-08-19T12:32:37;93122.66;;;32.35;35.17
10466;BME280;5280;42.600;23.556;2022-08-19T12:35:06;93115.53;;;32.34;35.84
10466;BME280;5280;42.600;23.556;2022-08-19T12:37:34;93110.38;;;32.38;30.99
10466;BME280;5280;42.600;23.556;2022-08-19T12:40:01;93099.66;;;32.31;32.21
10466;BME280;5280;42.600;23.556;2022-08-19T12:42:28;93094.41;;;32.30;32.36
10466;BME280;5280;42.600;23.556;2022-08-19T12:44:57;93106.84;;;32.42;34.58
10466;BME280;5280;42.600;23.556;2022-08-19T12:47:24;93094.47;;;32.35;31.09
10466;BME280;5280;42.600;23.556;2022-08-19T12:49:52;93084.56;;;32.29;34.85
10466;BME280;5280;42.600;23.556;2022-08-19T12:52:19;93088.66;;;32.26;35.43
10466;BME280;5280;42.600;23.556;2022-08-19T12:54:47;93099.44;;;32.38;32.34
10466;BME280;5280;42.600;23.556;2022-08-19T12:57:16;93090.41;;;32.37;34.72
10466;BME280;5280;42.600;23.556;2022-08-19T12:59:43;93100.56;;;32.42;34.18
10466;BME280;5280;42.600;23.556;2022-08-19T13:02:11;93057.00;;;32.09;32.73
10466;BME280;5280;42.600;23.556;2022-08-19T13:04:38;93096.28;;;32.24;32.52
10466;BME280;5280;42.600;23.556;2022-08-19T13:07:06;93091.44;;;32.31;31.80
10466;BME280;5280;42.600;23.556;2022-08-19T13:09:34;93095.00;;;32.32;31.14